Time;durP1;ratioP1;P1;durP2;ratioP2;P2;SDS_P1;SDS_P2;PMS_P1;PMS_P2;Temp;Humidity;BMP_temperature;BMP_pressure;BME280_temperature;BME280_humidity;BME280_pressure;Samples;Min_cycle;Max_cycle;Signal;HPM_P1;HPM_P2
2020/12/29 00:01:49;;;;;;;1.27;0.50;;;;;;;26.51;15.94;93290.06;5075288;28;20115;-53
2020/12/29 00:04:20;;;;;;;1.50;0.65;;;;;;;27.56;15.32;93272.13;5064966;28;20044;-52
2020/12/29 00:06:51;;;;;;;1.50;0.65;;;;;;;26.64;15.85;93276.81;5042532;28;20060;-54
2020/12/29 00:09:19;;;;;;;1.95;0.60;;;;;;;26.32;16.45;93278.19;5074923;28;20045;-52
2020/12/29 00:11:47;;;;;;;0.80;0.40;;;;;;;26.28;16.58;93264.06;5072480;28;20131;-58
2020/12/29 00:14:16;;;;;;;1.30;0.70;;;;;;;26.59;16.32;93288.03;5035198;28;20079;-52
2020/12/29 00:16:44;;;;;;;1.85;0.65;;;;;;;26.43;16.54;93294.81;5040636;28;20486;-55
2020/12/29 00:19:13;;;;;;;1.83;0.80;;;;;;;26.97;16.27;93289.13;5074911;28;20059;-53
2020/12/29 00:21:40;;;;;;;2.85;0.80;;;;;;;26.83;16.19;93270.69;5074149;28;20049;-53
2020/12/29 00:24:08;;;;;;;2.03;0.60;;;;;;;27.15;16.18;93314.84;5064155;28;20548;-54
2020/12/29 00:26:35;;;;;;;3.78;0.68;;;;;;;26.83;16.47;93276.03;5056157;28;20053;-54
2020/12/29 00:29:03;;;;;;;2.22;0.88;;;;;;;28.10;15.54;93290.38;5055316;28;20466;-55
2020/12/29 00:31:30;;;;;;;2.17;0.70;;;;;;;27.84;15.26;93329.00;5034862;28;20053;-55
2020/12/29 00:33:58;;;;;;;0.80;0.60;;;;;;;27.95;15.28;93278.50;5034761;28;20045;-55
2020/12/29 00:36:25;;;;;;;2.20;0.57;;;;;;;28.49;15.17;93310.88;5034759;28;20056;-56
2020/12/29 00:38:53;;;;;;;1.27;0.63;;;;;;;27.38;16.27;93285.22;5054154;28;20048;-55
2020/12/29 00:41:20;;;;;;;3.30;0.60;;;;;;;27.15;16.30;93304.88;5054350;28;20056;-54
2020/12/29 00:43:47;;;;;;;2.17;0.98;;;;;;;28.50;15.45;93241.75;5054235;28;20044;-56
2020/12/29 00:46:17;;;;;;;4.03;0.50;;;;;;;28.59;15.06;93249.19;5054051;28;20083;-54
2020/12/29 00:48:45;;;;;;;2.05;0.60;;;;;;;27.77;15.85;93235.22;5072381;28;20047;-55
2020/12/29 00:51:14;;;;;;;1.95;0.50;;;;;;;27.00;16.43;93299.06;5074134;28;20453;-53
2020/12/29 00:53:49;;;;;;;3.08;0.70;;;;;;;28.08;15.49;93252.44;5082026;28;20053;-52
2020/12/29 00:56:18;;;;;;;2.08;0.60;;;;;;;27.60;15.98;93270.13;5069568;28;20045;-54
2020/12/29 00:58:46;;;;;;;2.97;0.70;;;;;;;27.16;16.66;93233.22;5054300;28;20045;-55
2020/12/29 01:01:16;;;;;;;13.32;1.52;;;;;;;27.29;16.22;93181.16;5050859;28;20048;-55
2020/12/29 01:04:05;;;;;;;4.28;0.70;;;;;;;26.51;17.09;93235.72;5034423;28;20052;-55
2020/12/29 01:06:32;;;;;;;2.97;0.77;;;;;;;26.56;17.28;93205.78;5033282;28;20053;-54
2020/12/29 01:09:05;;;;;;;2.50;0.57;;;;;;;26.90;16.78;93192.78;5033014;28;20044;-55
2020/12/29 01:11:34;;;;;;;2.72;0.63;;;;;;;27.18;16.55;93188.69;5042316;28;20045;-53
2020/12/29 01:14:04;;;;;;;3.65;0.50;;;;;;;27.24;16.73;93229.94;5033326;28;20460;-54
2020/12/29 01:16:34;;;;;;;1.73;0.70;;;;;;;28.29;15.51;93210.09;5033123;28;20060;-54
2020/12/29 01:19:01;;;;;;;1.10;0.38;;;;;;;26.66;16.79;93239.63;5051952;28;20435;-56
2020/12/29 01:21:28;;;;;;;0.93;0.50;;;;;;;27.15;16.34;93245.13;5053982;28;20348;-57
2020/12/29 01:23:55;;;;;;;0.60;0.40;;;;;;;26.79;16.62;93208.31;5053821;28;20052;-56
2020/12/29 01:26:26;;;;;;;1.40;0.50;;;;;;;27.17;16.27;93216.69;5053825;28;20064;-56
2020/12/29 01:28:54;;;;;;;2.05;0.40;;;;;;;26.22;17.33;93230.91;5053673;28;20049;-57
2020/12/29 01:31:28;;;;;;;1.60;0.40;;;;;;;25.94;17.48;93247.50;5053426;28;20049;-57
2020/12/29 01:33:57;;;;;;;2.00;0.50;;;;;;;26.42;16.97;93245.09;5040400;28;20499;-56
2020/12/29 01:36:25;;;;;;;3.55;0.50;;;;;;;26.59;16.67;93263.91;5033819;28;20368;-58
2020/12/29 01:38:52;;;;;;;2.20;0.60;;;;;;;26.46;17.21;93271.06;5033613;28;20064;-52
2020/12/29 01:41:20;;;;;;;1.30;0.50;;;;;;;26.94;16.41;93252.44;5061108;28;20055;-59
2020/12/29 01:43:48;;;;;;;1.17;0.52;;;;;;;26.82;16.76;93244.28;5073735;28;20051;-53
2020/12/29 01:46:15;;;;;;;1.20;0.50;;;;;;;26.98;16.38;93263.84;5073861;28;20048;-57
2020/12/29 01:48:42;;;;;;;1.35;0.70;;;;;;;27.27;16.16;93274.72;5073704;28;20052;-54
2020/12/29 01:51:10;;;;;;;1.60;0.70;;;;;;;26.42;17.15;93258.47;5067956;28;20055;-57
2020/12/29 01:53:39;;;;;;;2.00;0.50;;;;;;;26.32;17.13;93298.84;5067029;28;20041;-56
2020/12/29 01:56:09;;;;;;;1.92;0.60;;;;;;;27.12;16.40;93262.06;5054660;28;20056;-56
2020/12/29 01:58:38;;;;;;;1.48;0.50;;;;;;;26.25;17.17;93240.78;5057638;28;20049;-56
2020/12/29 02:01:05;;;;;;;1.20;0.50;;;;;;;26.50;16.73;93250.28;5078719;28;20056;-57
2020/12/29 02:03:32;;;;;;;2.90;0.50;;;;;;;26.80;16.42;93265.38;5056982;28;20049;-54
2020/12/29 02:05:59;;;;;;;0.80;0.32;;;;;;;27.68;15.76;93240.44;5057731;28;20052;-54
2020/12/29 02:08:27;;;;;;;1.13;0.40;;;;;;;26.84;16.53;93307.03;5057123;28;20048;-56
2020/12/29 02:10:54;;;;;;;1.23;0.60;;;;;;;27.17;15.85;93235.47;5062139;28;20049;-54
2020/12/29 02:13:22;;;;;;;2.00;0.50;;;;;;;26.70;16.40;93297.34;5073119;28;20044;-55
2020/12/29 02:15:49;;;;;;;1.20;0.45;;;;;;;26.57;16.58;93260.88;5057310;28;20451;-55
2020/12/29 02:18:16;;;;;;;2.17;0.60;;;;;;;26.38;17.06;93243.66;5057071;28;20048;-54
2020/12/29 02:20:43;;;;;;;1.27;0.60;;;;;;;25.57;17.76;93222.50;5056570;28;20057;-52
2020/12/29 02:23:11;;;;;;;2.95;0.70;;;;;;;26.12;17.03;93229.19;5039456;28;20051;-57
2020/12/29 02:25:38;;;;;;;1.60;0.47;;;;;;;26.79;16.35;93215.59;5057149;28;20059;-54
2020/12/29 02:28:07;;;;;;;4.70;0.80;;;;;;;27.23;16.20;93233.03;5056856;28;20048;-55
2020/12/29 02:30:34;;;;;;;3.05;0.50;;;;;;;28.00;15.33;93210.84;5062797;28;20051;-54
2020/12/29 02:33:01;;;;;;;0.93;0.40;;;;;;;27.13;15.87;93236.75;5039368;28;20053;-54
2020/12/29 02:35:28;;;;;;;2.13;0.60;;;;;;;27.57;15.57;93195.78;5036956;28;20065;-53
2020/12/29 02:37:55;;;;;;;4.85;0.60;;;;;;;27.56;15.37;93253.31;5036957;28;20057;-53
2020/12/29 02:40:22;;;;;;;3.28;0.88;;;;;;;27.35;15.90;93283.38;5044679;28;20048;-55
2020/12/29 02:42:50;;;;;;;1.25;0.40;;;;;;;27.73;15.16;93258.72;5076945;28;20051;-55
2020/12/29 02:45:17;;;;;;;2.85;0.70;;;;;;;28.14;15.18;93291.06;5076905;28;20056;-54
2020/12/29 02:47:44;;;;;;;1.48;0.65;;;;;;;27.99;15.13;93230.06;5038739;28;20060;-58
2020/12/29 02:50:11;;;;;;;2.13;0.40;;;;;;;27.15;15.81;93239.75;5040865;28;20041;-56
2020/12/29 02:52:38;;;;;;;4.35;0.80;;;;;;;27.64;15.06;93286.94;5076734;28;20374;-54
2020/12/29 02:55:05;;;;;;;1.45;0.40;;;;;;;28.19;14.89;93254.84;5057933;28;20383;-55
2020/12/29 02:57:32;;;;;;;1.08;0.50;;;;;;;28.48;14.87;93279.06;5056452;28;20052;-57
2020/12/29 02:59:59;;;;;;;4.65;0.73;;;;;;;27.67;15.13;93238.94;5056416;28;20080;-54
2020/12/29 03:02:26;;;;;;;2.10;1.00;;;;;;;26.83;15.93;93262.66;5076593;28;20044;-54
2020/12/29 03:04:54;;;;;;;2.70;0.77;;;;;;;28.36;14.53;93279.75;5076217;28;20045;-55
2020/12/29 03:07:21;;;;;;;1.83;0.57;;;;;;;28.29;14.89;93312.19;5076151;28;20447;-57
2020/12/29 03:09:48;;;;;;;1.58;0.60;;;;;;;27.80;15.26;93310.31;5076387;28;20059;-55
2020/12/29 03:12:15;;;;;;;1.63;0.43;;;;;;;27.85;15.02;93311.75;5057397;28;20048;-54
2020/12/29 03:14:42;;;;;;;1.00;0.43;;;;;;;27.88;14.86;93324.34;5056308;28;20048;-53
2020/12/29 03:17:09;;;;;;;1.77;0.50;;;;;;;27.75;15.18;93312.75;5056239;28;20375;-54
2020/12/29 03:19:36;;;;;;;1.95;0.50;;;;;;;27.07;15.95;93356.41;5056409;28;20048;-55
2020/12/29 03:22:03;;;;;;;1.38;0.52;;;;;;;27.59;15.52;93316.94;5056318;28;20053;-55
2020/12/29 03:24:30;;;;;;;1.70;0.50;;;;;;;28.19;14.66;93362.31;5051162;28;20107;-57
2020/12/29 03:26:58;;;;;;;1.23;0.40;;;;;;;28.01;14.94;93341.25;5055917;28;20053;-54
2020/12/29 03:29:25;;;;;;;3.92;0.70;;;;;;;27.14;16.03;93321.41;5055908;28;20391;-53
2020/12/29 03:31:52;;;;;;;1.00;0.47;;;;;;;27.78;14.88;93306.53;5070183;28;20051;-55
2020/12/29 03:34:27;;;;;;;3.17;0.50;;;;;;;27.78;14.92;93317.28;5075883;28;20051;-54
2020/12/29 03:36:54;;;;;;;2.55;0.70;;;;;;;27.47;15.14;93309.53;5075934;28;20052;-53
2020/12/29 03:39:21;;;;;;;2.35;0.60;;;;;;;27.30;15.41;93375.06;5075599;28;20386;-55
2020/12/29 03:41:48;;;;;;;1.45;0.60;;;;;;;28.53;14.14;93324.97;5061497;28;20472;-52
2020/12/29 03:44:16;;;;;;;1.55;0.47;;;;;;;26.99;15.44;93323.59;5055638;28;20053;-52
2020/12/29 03:46:43;;;;;;;1.33;0.60;;;;;;;27.13;15.31;93317.19;5073010;28;20383;-58
2020/12/29 03:49:10;;;;;;;3.97;0.60;;;;;;;26.99;15.69;93324.38;5075505;28;20056;-55
2020/12/29 03:51:37;;;;;;;1.63;0.50;;;;;;;26.97;15.34;93310.59;5063153;28;20076;-56
2020/12/29 03:54:04;;;;;;;1.95;0.60;;;;;;;27.26;15.33;93342.94;5046589;28;20053;-57
2020/12/29 03:56:31;;;;;;;0.93;0.40;;;;;;;27.22;15.03;93333.47;5035772;28;20056;-55
2020/12/29 03:58:58;;;;;;;1.83;0.70;;;;;;;26.80;15.44;93325.09;5035360;28;20383;-52
2020/12/29 04:01:25;;;;;;;1.38;0.60;;;;;;;26.80;15.42;93300.97;5055531;28;20340;-54
2020/12/29 04:03:52;;;;;;;0.85;0.40;;;;;;;26.76;15.65;93318.31;5075270;28;20462;-54
2020/12/29 04:06:19;;;;;;;2.33;0.55;;;;;;;26.29;15.90;93311.16;5075043;28;20052;-55
2020/12/29 04:08:46;;;;;;;0.80;0.35;;;;;;;26.28;15.82;93309.59;5075147;28;20047;-56
2020/12/29 04:11:13;;;;;;;2.22;0.70;;;;;;;26.43;15.86;93332.34;5066575;28;20055;-59
2020/12/29 04:13:41;;;;;;;2.90;0.70;;;;;;;26.43;15.65;93380.56;5054902;28;20052;-53
2020/12/29 04:16:10;;;;;;;2.33;0.52;;;;;;;26.28;15.78;93331.03;5055007;28;20447;-52
2020/12/29 04:18:38;;;;;;;1.30;0.38;;;;;;;26.71;15.24;93346.34;5046944;28;20512;-53
2020/12/29 04:21:05;;;;;;;2.00;0.60;;;;;;;26.79;15.20;93358.44;5042854;28;20052;-55
2020/12/29 04:23:33;;;;;;;1.08;0.40;;;;;;;26.79;15.00;93350.41;5054757;28;20045;-54
2020/12/29 04:26:00;;;;;;;2.75;0.63;;;;;;;26.50;15.42;93341.41;5054810;28;20056;-54
2020/12/29 04:28:27;;;;;;;2.08;0.50;;;;;;;26.84;14.94;93333.09;5054723;28;20045;-53
2020/12/29 04:30:54;;;;;;;1.75;0.52;;;;;;;27.57;14.16;93332.69;5082153;28;20049;-54
2020/12/29 04:33:21;;;;;;;5.50;0.47;;;;;;;28.00;13.93;93323.63;5034780;28;20064;-57
2020/12/29 04:35:48;;;;;;;2.15;0.50;;;;;;;27.47;14.65;93339.06;5034924;28;20049;-53
2020/12/29 04:38:15;;;;;;;1.88;0.40;;;;;;;28.60;13.33;93321.34;5034481;28;20053;-55
2020/12/29 04:40:42;;;;;;;2.35;0.50;;;;;;;28.00;13.96;93329.00;5040600;28;20447;-54
2020/12/29 04:43:09;;;;;;;1.23;0.40;;;;;;;27.92;14.04;93365.28;5073383;28;20059;-53
2020/12/29 04:45:36;;;;;;;1.52;0.60;;;;;;;28.53;13.46;93334.97;5074487;28;20048;-55
2020/12/29 04:48:03;;;;;;;2.20;0.35;;;;;;;28.49;13.93;93380.00;5074101;28;20055;-52
2020/12/29 04:50:32;;;;;;;1.50;0.50;;;;;;;29.21;12.91;93425.38;5071466;28;20040;-56
2020/12/29 04:53:00;;;;;;;1.88;0.50;;;;;;;29.17;13.03;93336.69;5051250;28;20052;-53
2020/12/29 04:55:31;;;;;;;1.60;0.45;;;;;;;28.71;13.39;93370.22;5086413;28;20045;-55
2020/12/29 04:58:00;;;;;;;1.30;0.35;;;;;;;27.80;14.21;93374.75;5054027;28;20456;-52
2020/12/29 05:00:27;;;;;;;1.15;0.40;;;;;;;28.34;14.00;93394.97;5041681;28;20056;-54
2020/12/29 05:02:54;;;;;;;1.83;0.50;;;;;;;27.54;14.88;93373.78;5074111;28;20048;-53
2020/12/29 05:05:23;;;;;;;2.05;0.52;;;;;;;27.53;14.65;93387.63;5074134;28;20075;-54
2020/12/29 05:07:51;;;;;;;1.42;0.50;;;;;;;27.34;15.14;93381.13;5062453;28;20076;-55
2020/12/29 05:10:18;;;;;;;1.52;0.73;;;;;;;26.70;15.74;93368.97;5034205;28;20048;-53
2020/12/29 05:12:49;;;;;;;1.70;0.70;;;;;;;26.66;15.79;93392.41;5048082;28;20041;-53
2020/12/29 05:15:17;;;;;;;2.50;0.55;;;;;;;26.34;16.14;93356.25;5034121;28;20508;-52
2020/12/29 05:17:44;;;;;;;3.35;1.20;;;;;;;26.35;16.24;93371.16;5032971;28;20056;-55
2020/12/29 05:20:12;;;;;;;1.00;0.50;;;;;;;27.15;15.06;93384.59;5033951;28;20392;-55
2020/12/29 05:22:39;;;;;;;2.60;0.50;;;;;;;26.46;16.13;93380.91;5069277;28;20055;-55
2020/12/29 05:25:07;;;;;;;2.45;0.60;;;;;;;26.21;16.02;93384.75;5055106;28;20041;-55
2020/12/29 05:27:38;;;;;;;1.92;0.60;;;;;;;26.51;15.78;93364.34;5053618;28;20048;-57
2020/12/29 05:30:06;;;;;;;2.47;0.70;;;;;;;26.58;16.00;93350.84;5053531;28;20055;-52
2020/12/29 05:32:38;;;;;;;2.45;0.85;;;;;;;26.68;15.75;93336.47;5070056;28;20047;-53
2020/12/29 05:35:13;;;;;;;1.30;0.60;;;;;;;27.17;15.46;93383.00;5073687;28;20471;-55
2020/12/29 05:37:41;;;;;;;2.95;1.20;;;;;;;26.85;15.56;93372.16;5073958;28;20052;-56
2020/12/29 05:40:25;;;;;;;2.22;0.50;;;;;;;26.69;16.00;93364.78;5072785;28;20371;-53
2020/12/29 05:43:00;;;;;;;2.00;0.70;;;;;;;26.70;15.73;93355.56;5054238;28;20470;-54
2020/12/29 05:45:37;;;;;;;2.38;0.85;;;;;;;26.06;16.63;93357.47;5053654;28;20048;-54
2020/12/29 05:48:04;;;;;;;3.10;0.60;;;;;;;25.89;16.88;93360.41;5052573;28;20048;-54
2020/12/29 05:50:32;;;;;;;3.65;0.85;;;;;;;26.37;16.31;93363.44;5061526;28;20044;-55
2020/12/29 05:53:01;;;;;;;1.52;0.60;;;;;;;26.76;15.81;93370.00;5053497;28;20045;-54
2020/12/29 05:55:28;;;;;;;1.65;0.60;;;;;;;26.76;15.84;93359.28;5069649;28;20052;-55
2020/12/29 05:58:09;;;;;;;1.90;0.77;;;;;;;26.81;15.88;93355.38;5053567;28;20041;-53
2020/12/29 06:00:39;;;;;;;1.88;0.60;;;;;;;26.52;16.31;93371.22;5062190;28;20056;-54
2020/12/29 06:03:08;;;;;;;1.60;0.50;;;;;;;26.79;15.93;93363.81;5060378;28;20367;-47
2020/12/29 06:05:36;;;;;;;1.45;0.43;;;;;;;26.53;16.05;93383.44;5068288;28;20044;-54
2020/12/29 06:08:05;;;;;;;2.83;0.50;;;;;;;26.10;16.87;93373.47;5073465;28;20059;-53
2020/12/29 06:10:35;;;;;;;1.45;0.65;;;;;;;26.43;16.35;93385.91;5065070;28;20041;-56
2020/12/29 06:13:06;;;;;;;2.72;0.57;;;;;;;25.81;17.09;93351.75;5047168;28;20053;-53
2020/12/29 06:15:35;;;;;;;2.35;0.63;;;;;;;26.10;16.85;93378.81;5033940;28;20049;-52
2020/12/29 06:18:04;;;;;;;3.08;0.60;;;;;;;25.72;17.50;93376.34;5033604;28;20356;-55
2020/12/29 06:21:07;;;;;;;2.47;0.50;;;;;;;26.50;16.68;93378.91;5048462;28;20183;-51
2020/12/29 06:23:45;;;;;;;;;;;;;;;26.74;16.68;93377.69;5005999;28;20053;-53
2020/12/29 06:26:19;;;;;;;1.75;0.77;;;;;;;26.88;16.33;93366.72;5030200;28;19924;-53
2020/12/29 06:28:53;;;;;;;1.33;0.50;;;;;;;27.13;16.47;93390.38;5033286;28;20375;-51
2020/12/29 06:31:28;;;;;;;2.97;0.70;;;;;;;26.85;16.34;93410.44;5061117;28;20040;-51
2020/12/29 06:33:57;;;;;;;1.25;0.50;;;;;;;27.07;16.40;93415.44;5062135;28;20388;-50
2020/12/29 06:36:26;;;;;;;1.40;0.50;;;;;;;27.68;15.83;93404.97;5033183;28;20062;-50
2020/12/29 06:38:58;;;;;;;1.75;0.70;;;;;;;27.13;16.06;93440.59;5032289;28;20045;-53
2020/12/29 06:41:27;;;;;;;4.88;0.90;;;;;;;27.08;16.40;93414.25;5057541;28;20045;-52
2020/12/29 06:43:54;;;;;;;1.42;0.70;;;;;;;27.20;16.05;93427.78;5072761;28;20052;-51
2020/12/29 06:46:22;;;;;;;1.55;0.68;;;;;;;27.35;16.03;93417.53;5072651;28;20053;-52
2020/12/29 06:48:49;;;;;;;2.97;0.50;;;;;;;27.64;15.95;93437.25;5072350;28;20044;-50
2020/12/29 06:51:16;;;;;;;1.65;0.70;;;;;;;27.17;16.05;93430.53;5069179;28;20044;-53
2020/12/29 06:53:43;;;;;;;1.95;0.50;;;;;;;27.29;16.30;93429.91;5069480;28;20049;-50
2020/12/29 06:56:28;;;;;;;4.75;1.13;;;;;;;27.96;15.84;93457.25;5089603;28;20056;-56
2020/12/29 06:58:56;;;;;;;1.92;0.70;;;;;;;27.89;15.85;93431.34;5056922;28;20363;-55
2020/12/29 07:01:27;;;;;;;1.30;0.50;;;;;;;27.84;16.06;93477.47;5069674;28;20051;-52
2020/12/29 07:04:06;;;;;;;1.85;0.85;;;;;;;27.87;15.57;93443.66;5076523;28;20045;-50
2020/12/29 07:06:37;;;;;;;1.27;0.50;;;;;;;28.20;15.29;93439.81;5076449;28;20060;-52
2020/12/29 07:09:26;;;;;;;1.40;0.50;;;;;;;27.96;15.84;93468.00;5047927;28;20057;-53
2020/12/29 07:12:10;;;;;;;1.95;0.47;;;;;;;27.85;15.93;93456.75;5070878;28;20052;-52
2020/12/29 07:14:37;;;;;;;1.67;0.70;;;;;;;28.54;15.45;93431.31;5076610;28;20048;-52
2020/12/29 07:17:07;;;;;;;2.45;0.50;;;;;;;28.71;15.07;93436.69;5076146;28;20462;-51
2020/12/29 07:19:39;;;;;;;3.47;0.70;;;;;;;28.95;14.71;93464.13;5061604;28;20049;-53
2020/12/29 07:22:20;;;;;;;2.50;0.68;;;;;;;29.33;14.59;93440.03;5073543;28;20057;-52
2020/12/29 07:24:47;;;;;;;1.50;0.63;;;;;;;28.37;15.32;93464.03;5059897;28;20045;-53
2020/12/29 07:27:15;;;;;;;1.42;0.63;;;;;;;28.89;15.16;93460.44;5055870;28;20359;-51
2020/12/29 07:29:59;;;;;;;2.25;0.65;;;;;;;28.39;15.69;93488.56;5072541;28;20046;-53
2020/12/29 07:32:26;;;;;;;2.75;0.80;;;;;;;28.94;14.97;93463.38;5036217;28;20045;-52
2020/12/29 07:34:53;;;;;;;2.28;0.93;;;;;;;28.46;15.65;93459.56;5035899;28;20053;-52
2020/12/29 07:37:22;;;;;;;1.63;0.60;;;;;;;28.27;15.64;93481.91;5035869;28;20041;-52
2020/12/29 07:39:50;;;;;;;1.55;0.57;;;;;;;28.34;15.68;93495.16;5035924;28;20053;-50
2020/12/29 07:42:17;;;;;;;1.35;0.60;;;;;;;28.60;15.67;93482.66;5075073;28;20040;-50
2020/12/29 07:44:44;;;;;;;1.73;0.85;;;;;;;28.75;15.48;93483.81;5074370;28;20049;-52
2020/12/29 07:47:11;;;;;;;1.75;1.10;;;;;;;28.31;15.78;93497.94;5055618;28;20064;-51
2020/12/29 07:49:39;;;;;;;2.22;0.80;;;;;;;28.57;15.30;93499.63;5056118;28;20048;-53
2020/12/29 07:52:06;;;;;;;1.35;0.80;;;;;;;29.04;14.88;93491.19;5073068;28;20048;-54
2020/12/29 07:54:34;;;;;;;3.20;0.50;;;;;;;29.32;14.80;93525.41;5060381;28;20750;-52
2020/12/29 07:57:01;;;;;;;1.63;0.57;;;;;;;28.75;15.36;93518.78;5055344;28;20055;-54
2020/12/29 07:59:28;;;;;;;1.60;0.70;;;;;;;29.94;14.60;93498.31;5055504;28;20062;-51
2020/12/29 08:01:57;;;;;;;2.85;0.77;;;;;;;29.69;14.45;93513.28;5069687;28;20262;-53
2020/12/29 08:04:34;;;;;;;1.42;0.68;;;;;;;29.76;14.42;93517.69;5035419;28;20059;-55
2020/12/29 08:07:09;;;;;;;2.40;1.00;;;;;;;28.69;15.67;93533.91;5035116;28;20052;-52
2020/12/29 08:09:49;;;;;;;2.53;1.42;;;;;;;29.07;15.30;93536.81;5035683;28;20468;-51
2020/12/29 08:12:17;;;;;;;2.72;0.88;;;;;;;28.74;15.43;93528.00;5072020;28;20462;-52
2020/12/29 08:14:44;;;;;;;2.35;0.70;;;;;;;29.40;14.81;93542.88;5063653;28;20345;-51
2020/12/29 08:17:12;;;;;;;1.48;0.80;;;;;;;29.04;15.50;93532.28;5054849;28;20049;-53
2020/12/29 08:19:39;;;;;;;3.42;1.98;;;;;;;28.83;15.61;93528.16;5055079;28;20060;-52
2020/12/29 08:22:10;;;;;;;3.40;2.05;;;;;;;29.64;14.91;93545.34;5054978;28;20049;-52
2020/12/29 08:24:41;;;;;;;58.30;52.38;;;;;;;29.27;14.84;93534.00;5054479;28;20060;-54
2020/12/29 08:27:08;;;;;;;24.17;21.10;;;;;;;29.71;14.45;93537.06;5054533;28;20448;-51
2020/12/29 08:29:35;;;;;;;38.20;34.22;;;;;;;29.82;14.81;93564.44;5054906;28;20045;-50
2020/12/29 08:32:08;;;;;;;15.70;14.18;;;;;;;29.53;14.69;93555.66;5053944;28;20049;-55
2020/12/29 08:34:38;;;;;;;4.45;2.33;;;;;;;30.60;13.69;93531.75;5053528;28;20041;-52
2020/12/29 08:37:09;;;;;;;1.70;0.77;;;;;;;30.07;14.44;93555.69;5035469;28;20056;-52
2020/12/29 08:39:51;;;;;;;2.55;1.08;;;;;;;30.13;14.22;93547.81;5033534;28;20049;-53
2020/12/29 08:42:19;;;;;;;4.60;1.02;;;;;;;29.17;15.25;93549.25;5034749;28;20053;-52
2020/12/29 08:44:46;;;;;;;13.40;9.75;;;;;;;29.22;15.30;93591.03;5043228;28;20045;-54
2020/12/29 08:47:14;;;;;;;4.70;2.72;;;;;;;29.36;14.79;93558.34;5054300;28;20048;-52
2020/12/29 08:49:42;;;;;;;2.92;1.00;;;;;;;29.36;15.10;93562.97;5070152;28;20041;-51
2020/12/29 08:52:09;;;;;;;2.97;1.08;;;;;;;29.32;15.24;93573.84;5054560;28;20059;-53
2020/12/29 08:54:38;;;;;;;2.85;1.20;;;;;;;29.64;15.12;93529.19;5058836;28;20055;-53
2020/12/29 08:57:06;;;;;;;3.60;0.80;;;;;;;29.44;14.94;93577.78;5074110;28;20056;-51
2020/12/29 08:59:39;;;;;;;2.75;1.02;;;;;;;29.34;15.41;93576.13;5074368;28;20340;-51
2020/12/29 09:02:07;;;;;;;3.67;0.98;;;;;;;29.77;14.86;93587.28;5074281;28;20054;-52
2020/12/29 09:04:38;;;;;;;2.33;0.80;;;;;;;29.34;15.40;93601.09;5069554;28;20371;-51
2020/12/29 09:07:10;;;;;;;2.35;1.20;;;;;;;29.21;15.50;93573.38;5053942;28;20056;-54
2020/12/29 09:09:37;;;;;;;;;;;;;;;29.80;14.66;93580.28;5054666;28;20440;-52
2020/12/29 09:12:04;;;;;;;1.88;0.57;;;;;;;29.96;14.87;93593.69;5054053;28;19916;-51
2020/12/29 09:14:32;;;;;;;3.25;1.30;;;;;;;29.82;14.73;93604.84;5053991;28;20041;-51
2020/12/29 09:17:06;;;;;;;2.58;1.10;;;;;;;29.58;15.00;93612.44;5053698;28;20120;-51
2020/12/29 09:19:34;;;;;;;2.25;0.43;;;;;;;29.33;15.35;93591.50;5054252;28;20052;-55
2020/12/29 09:22:09;;;;;;;2.40;1.30;;;;;;;29.41;15.30;93603.63;5053912;28;20059;-51
2020/12/29 09:24:37;;;;;;;3.80;0.90;;;;;;;29.74;15.01;93603.56;5053961;28;20049;-52
2020/12/29 09:27:04;;;;;;;2.33;0.70;;;;;;;29.35;15.47;93589.16;5055254;28;20055;-52
2020/12/29 09:29:35;;;;;;;1.70;0.60;;;;;;;29.93;14.79;93591.88;5054023;28;20052;-51
2020/12/29 09:32:02;;;;;;;1.63;0.73;;;;;;;29.44;15.58;93605.50;5054026;28;20053;-52
2020/12/29 09:34:29;;;;;;;1.67;0.70;;;;;;;29.90;14.97;93583.84;5053904;28;20052;-53
2020/12/29 09:37:07;;;;;;;1.90;0.60;;;;;;;30.19;14.58;93594.59;5061257;28;20483;-52
2020/12/29 09:39:35;;;;;;;3.00;0.63;;;;;;;29.56;14.75;93593.25;5073758;28;20052;-51
2020/12/29 09:42:02;;;;;;;3.10;0.98;;;;;;;30.44;14.42;93562.25;5073860;28;20053;-52
2020/12/29 09:44:29;;;;;;;5.85;0.95;;;;;;;30.29;14.52;93578.13;5073834;28;20049;-54
2020/12/29 09:46:56;;;;;;;2.17;1.00;;;;;;;29.93;14.97;93562.22;5065595;28;20063;-51
2020/12/29 09:49:23;;;;;;;1.70;0.80;;;;;;;30.20;14.61;93566.50;5053904;28;20053;-51
2020/12/29 09:51:54;;;;;;;3.35;0.70;;;;;;;30.07;14.95;93550.28;5054028;28;20048;-52
2020/12/29 09:54:21;;;;;;;2.55;0.77;;;;;;;29.82;15.02;93550.22;5053202;28;20051;-52
2020/12/29 09:56:48;;;;;;;1.90;0.73;;;;;;;29.83;14.75;93557.13;5061567;28;20391;-52
2020/12/29 09:59:15;;;;;;;1.75;0.80;;;;;;;29.89;15.01;93593.13;5053660;28;20060;-52
2020/12/29 10:01:42;;;;;;;3.95;0.90;;;;;;;30.46;14.14;93576.09;5053545;28;20045;-53
2020/12/29 10:04:09;;;;;;;2.42;0.65;;;;;;;29.95;14.48;93581.41;5035349;28;20091;-55
2020/12/29 10:06:36;;;;;;;1.65;0.77;;;;;;;30.76;13.87;93549.78;5052603;28;20055;-51
2020/12/29 10:09:03;;;;;;;1.70;0.80;;;;;;;31.15;13.73;93573.53;5073418;28;20055;-52
2020/12/29 10:11:30;;;;;;;2.13;0.90;;;;;;;30.13;14.55;93585.53;5073146;28;20055;-52
2020/12/29 10:13:57;;;;;;;1.55;0.50;;;;;;;31.36;13.34;93584.81;5073579;28;20049;-51
2020/12/29 10:16:24;;;;;;;1.63;0.90;;;;;;;30.18;14.46;93566.91;5065332;28;20045;-54
2020/12/29 10:18:51;;;;;;;4.03;0.60;;;;;;;30.79;13.41;93624.44;5057231;28;20064;-51
2020/12/29 10:21:20;;;;;;;3.38;0.93;;;;;;;30.94;13.59;93582.31;5057293;28;20056;-54
2020/12/29 10:23:47;;;;;;;2.38;1.00;;;;;;;30.86;13.15;93570.25;5057064;28;20375;-51
2020/12/29 10:26:14;;;;;;;1.92;0.60;;;;;;;31.62;12.75;93594.34;5063097;28;20056;-54
2020/12/29 10:28:42;;;;;;;3.00;0.88;;;;;;;30.34;14.16;93574.91;5056720;28;20054;-51
2020/12/29 10:31:09;;;;;;;1.65;0.65;;;;;;;30.57;14.09;93581.91;5037261;28;20053;-51
2020/12/29 10:33:36;;;;;;;1.98;0.70;;;;;;;30.64;13.77;93568.22;5037608;28;20510;-51
2020/12/29 10:36:03;;;;;;;1.63;0.60;;;;;;;30.20;14.11;93555.72;5045229;28;20056;-53
2020/12/29 10:38:31;;;;;;;3.28;0.95;;;;;;;30.96;13.46;93571.84;5076643;28;20047;-52
2020/12/29 10:40:58;;;;;;;1.55;0.65;;;;;;;30.90;13.41;93592.47;5076718;28;20059;-52
2020/12/29 10:43:25;;;;;;;1.77;0.52;;;;;;;31.06;13.45;93541.06;5076859;28;20052;-53
2020/12/29 10:45:52;;;;;;;3.08;0.80;;;;;;;31.01;13.01;93549.72;5074246;28;20052;-51
2020/12/29 10:48:19;;;;;;;1.75;0.60;;;;;;;31.25;12.91;93558.97;5056752;28;20045;-55
2020/12/29 10:50:46;;;;;;;1.67;0.68;;;;;;;30.81;13.17;93557.31;5056903;28;20055;-54
2020/12/29 10:53:13;;;;;;;4.07;0.80;;;;;;;30.54;13.73;93534.22;5056443;28;20041;-56
2020/12/29 10:55:40;;;;;;;1.13;0.38;;;;;;;30.86;13.36;93581.03;5056935;28;20048;-55
2020/12/29 10:58:07;;;;;;;2.45;0.70;;;;;;;30.40;13.78;93580.50;5076420;28;20060;-52
2020/12/29 11:00:34;;;;;;;1.60;0.50;;;;;;;30.48;13.61;93579.13;5076701;28;20056;-51
2020/12/29 11:03:02;;;;;;;1.27;0.55;;;;;;;30.74;13.45;93573.72;5072220;28;20044;-54
2020/12/29 11:05:29;;;;;;;4.28;0.73;;;;;;;30.44;13.62;93561.50;5036663;28;20108;-54
2020/12/29 11:07:56;;;;;;;1.98;0.60;;;;;;;30.38;13.77;93569.38;5073788;28;20502;-52
2020/12/29 11:10:23;;;;;;;1.42;0.73;;;;;;;30.73;13.63;93572.97;5076546;28;20052;-56
2020/12/29 11:12:50;;;;;;;1.67;0.60;;;;;;;31.58;12.71;93564.00;5075516;28;20352;-53
2020/12/29 11:15:17;;;;;;;2.15;0.77;;;;;;;31.62;12.85;93556.53;5076323;28;20059;-52
2020/12/29 11:17:44;;;;;;;2.60;0.80;;;;;;;31.05;13.19;93604.31;5059030;28;20048;-54
2020/12/29 11:20:11;;;;;;;3.47;0.70;;;;;;;31.27;13.06;93580.88;5056392;28;20052;-57
2020/12/29 11:22:38;;;;;;;3.55;0.85;;;;;;;31.04;13.24;93543.44;5056135;28;20443;-53
2020/12/29 11:25:05;;;;;;;2.33;0.85;;;;;;;30.11;13.90;93544.81;5055960;28;20064;-53
2020/12/29 11:27:32;;;;;;;1.92;0.80;;;;;;;30.39;13.57;93581.69;5070599;28;20052;-52
2020/12/29 11:29:59;;;;;;;2.40;0.90;;;;;;;30.61;13.56;93558.31;5062120;28;20052;-52
2020/12/29 11:32:26;;;;;;;3.33;0.60;;;;;;;30.43;13.78;93558.06;5056227;28;20037;-53
2020/12/29 11:34:53;;;;;;;4.03;0.90;;;;;;;30.48;13.65;93562.94;5055933;28;20052;-51
2020/12/29 11:37:20;;;;;;;2.10;0.80;;;;;;;30.41;13.66;93563.13;5055685;28;20333;-56
2020/12/29 11:39:47;;;;;;;2.80;0.85;;;;;;;30.08;13.98;93570.66;5055883;28;20056;-53
2020/12/29 11:42:14;;;;;;;1.98;0.80;;;;;;;29.80;14.31;93582.22;5054845;28;20101;-54